sensor_id;sensor_type;location;lat;lon;timestamp;temperature;humidity
37998;DHT22;24079;51.824;4.682;2023-04-10T00:02:18;11.40;99.90
37998;DHT22;24079;51.824;4.682;2023-04-10T00:04:44;11.40;99.90
37998;DHT22;24079;51.824;4.682;2023-04-10T00:07:11;11.30;99.90
37998;DHT22;24079;51.824;4.682;2023-04-10T00:09:37;11.30;99.90
37998;DHT22;24079;51.824;4.682;2023-04-10T00:12:03;11.20;99.90
37998;DHT22;24079;51.824;4.682;2023-04-10T00:14:29;11.30;99.90
37998;DHT22;24079;51.824;4.682;2023-04-10T00:16:56;11.30;99.90
37998;DHT22;24079;51.824;4.682;2023-04-10T00:19:22;11.30;99.90
37998;DHT22;24079;51.824;4.682;2023-04-10T00:21:48;11.20;99.90
37998;DHT22;24079;51.824;4.682;2023-04-10T00:24:14;11.20;99.90
37998;DHT22;24079;51.824;4.682;2023-04-10T00:26:40;11.30;99.90
37998;DHT22;24079;51.824;4.682;2023-04-10T00:29:05;11.20;99.90
37998;DHT22;24079;51.824;4.682;2023-04-10T00:31:32;11.30;99.90
37998;DHT22;24079;51.824;4.682;2023-04-10T00:33:58;11.30;99.90
37998;DHT22;24079;51.824;4.682;2023-04-10T00:36:23;11.20;99.90
37998;DHT22;24079;51.824;4.682;2023-04-10T00:38:49;11.30;99.90
37998;DHT22;24079;51.824;4.682;2023-04-10T00:41:15;11.20;99.90
37998;DHT22;24079;51.824;4.682;2023-04-10T00:43:41;11.20;99.90
37998;DHT22;24079;51.824;4.682;2023-04-10T00:46:06;11.30;99.90
37998;DHT22;24079;51.824;4.682;2023-04-10T00:48:33;11.30;99.90
37998;DHT22;24079;51.824;4.682;2023-04-10T00:50:59;11.30;99.90
37998;DHT22;24079;51.824;4.682;2023-04-10T00:53:25;11.30;99.90
37998;DHT22;24079;51.824;4.682;2023-04-10T00:55:52;11.30;99.90
37998;DHT22;24079;51.824;4.682;2023-04-10T00:58:18;11.20;99.90
37998;DHT22;24079;51.824;4.682;2023-04-10T01:00:43;11.20;99.90
37998;DHT22;24079;51.824;4.682;2023-04-10T01:03:10;11.20;99.90
37998;DHT22;24079;51.824;4.682;2023-04-10T01:11:48;11.10;99.90
37998;DHT22;24079;51.824;4.682;2023-04-10T01:17:11;11.10;99.90
37998;DHT22;24079;51.824;4.682;2023-04-10T01:19:43;11.10;99.90
37998;DHT22;24079;51.824;4.682;2023-04-10T01:22:15;11.00;99.90
37998;DHT22;24079;51.824;4.682;2023-04-10T01:24:56;11.10;99.90
37998;DHT22;24079;51.824;4.682;2023-04-10T01:27:39;11.10;99.90
37998;DHT22;24079;51.824;4.682;2023-04-10T01:30:12;11.00;99.90
37998;DHT22;24079;51.824;4.682;2023-04-10T01:32:40;10.90;99.90
37998;DHT22;24079;51.824;4.682;2023-04-10T01:35:07;10.90;99.90
37998;DHT22;24079;51.824;4.682;2023-04-10T01:37:37;10.90;99.90
37998;DHT22;24079;51.824;4.682;2023-04-10T01:40:08;10.90;99.90
37998;DHT22;24079;51.824;4.682;2023-04-10T01:42:40;10.80;99.90
37998;DHT22;24079;51.824;4.682;2023-04-10T01:45:12;10.90;99.90
37998;DHT22;24079;51.824;4.682;2023-04-10T01:47:39;10.80;99.90
37998;DHT22;24079;51.824;4.682;2023-04-10T01:50:05;10.80;99.90
37998;DHT22;24079;51.824;4.682;2023-04-10T01:52:33;10.80;99.90
37998;DHT22;24079;51.824;4.682;2023-04-10T01:55:00;10.80;99.90
37998;DHT22;24079;51.824;4.682;2023-04-10T01:57:26;10.80;99.90
37998;DHT22;24079;51.824;4.682;2023-04-10T01:59:54;10.80;99.90
37998;DHT22;24079;51.824;4.682;2023-04-10T02:02:21;10.80;99.90
37998;DHT22;24079;51.824;4.682;2023-04-10T02:04:46;10.80;99.90
37998;DHT22;24079;51.824;4.682;2023-04-10T02:07:23;10.80;99.90
37998;DHT22;24079;51.824;4.682;2023-04-10T02:12:36;10.80;99.90
37998;DHT22;24079;51.824;4.682;2023-04-10T02:15:04;10.70;99.90
37998;DHT22;24079;51.824;4.682;2023-04-10T02:17:33;10.80;99.90
37998;DHT22;24079;51.824;4.682;2023-04-10T02:20:01;10.70;99.90
37998;DHT22;24079;51.824;4.682;2023-04-10T02:22:28;10.70;99.90
37998;DHT22;24079;51.824;4.682;2023-04-10T02:24:56;10.70;99.90
37998;DHT22;24079;51.824;4.682;2023-04-10T02:27:35;10.80;99.90
37998;DHT22;24079;51.824;4.682;2023-04-10T02:30:02;10.80;99.90
37998;DHT22;24079;51.824;4.682;2023-04-10T02:32:28;10.70;99.90
37998;DHT22;24079;51.824;4.682;2023-04-10T02:34:54;10.80;99.90
37998;DHT22;24079;51.824;4.682;2023-04-10T02:37:21;10.80;99.90
37998;DHT22;24079;51.824;4.682;2023-04-10T02:39:46;10.80;99.90
37998;DHT22;24079;51.824;4.682;2023-04-10T02:42:12;10.80;99.90
37998;DHT22;24079;51.824;4.682;2023-04-10T02:44:38;10.70;99.90
37998;DHT22;24079;51.824;4.682;2023-04-10T02:47:05;10.70;99.90
37998;DHT22;24079;51.824;4.682;2023-04-10T02:49:34;10.70;99.90
37998;DHT22;24079;51.824;4.682;2023-04-10T02:52:00;10.80;99.90
37998;DHT22;24079;51.824;4.682;2023-04-10T02:54:26;10.80;99.90
37998;DHT22;24079;51.824;4.682;2023-04-10T02:56:51;10.80;99.90
37998;DHT22;24079;51.824;4.682;2023-04-10T02:59:17;10.80;99.90
37998;DHT22;24079;51.824;4.682;2023-04-10T03:01:45;10.80;99.90
37998;DHT22;24079;51.824;4.682;2023-04-10T03:04:11;10.80;99.90
37998;DHT22;24079;51.824;4.682;2023-04-10T03:06:37;10.80;99.90
37998;DHT22;24079;51.824;4.682;2023-04-10T03:09:03;10.80;99.90
37998;DHT22;24079;51.824;4.682;2023-04-10T03:11:29;10.70;99.90
37998;DHT22;24079;51.824;4.682;2023-04-10T03:13:55;10.80;99.90
37998;DHT22;24079;51.824;4.682;2023-04-10T03:16:23;10.80;99.90
37998;DHT22;24079;51.824;4.682;2023-04-10T03:18:49;10.80;99.90
37998;DHT22;24079;51.824;4.682;2023-04-10T03:21:14;10.80;99.90
37998;DHT22;24079;51.824;4.682;2023-04-10T03:23:40;10.80;99.90
37998;DHT22;24079;51.824;4.682;2023-04-10T03:26:06;10.80;99.90
37998;DHT22;24079;51.824;4.682;2023-04-10T03:28:32;10.80;99.90
37998;DHT22;24079;51.824;4.682;2023-04-10T03:31:00;10.80;99.90
37998;DHT22;24079;51.824;4.682;2023-04-10T03:33:26;10.80;99.90
37998;DHT22;24079;51.824;4.682;2023-04-10T03:35:51;10.80;99.90
37998;DHT22;24079;51.824;4.682;2023-04-10T03:38:18;10.80;99.90
37998;DHT22;24079;51.824;4.682;2023-04-10T03:40:43;10.80;99.90
37998;DHT22;24079;51.824;4.682;2023-04-10T03:43:09;10.80;99.90
37998;DHT22;24079;51.824;4.682;2023-04-10T03:45:35;10.80;99.90
37998;DHT22;24079;51.824;4.682;2023-04-10T03:48:00;10.80;99.90
37998;DHT22;24079;51.824;4.682;2023-04-10T03:50:26;10.80;99.90
37998;DHT22;24079;51.824;4.682;2023-04-10T03:52:52;10.80;99.90
37998;DHT22;24079;51.824;4.682;2023-04-10T03:55:17;10.80;99.90
37998;DHT22;24079;51.824;4.682;2023-04-10T03:57:47;10.80;99.90
37998;DHT22;24079;51.824;4.682;2023-04-10T04:03:07;10.80;99.90
37998;DHT22;24079;51.824;4.682;2023-04-10T04:05:33;10.80;99.90
37998;DHT22;24079;51.824;4.682;2023-04-10T04:07:59;10.80;99.90
37998;DHT22;24079;51.824;4.682;2023-04-10T04:10:26;10.70;99.90
37998;DHT22;24079;51.824;4.682;2023-04-10T04:12:52;10.70;99.90
37998;DHT22;24079;51.824;4.682;2023-04-10T04:15:17;10.70;99.90
37998;DHT22;24079;51.824;4.682;2023-04-10T04:17:45;10.70;99.90
37998;DHT22;24079;51.824;4.682;2023-04-10T04:20:11;10.60;99.90
37998;DHT22;24079;51.824;4.682;2023-04-10T04:22:37;10.50;99.90
37998;DHT22;24079;51.824;4.682;2023-04-10T04:25:03;10.50;99.90
37998;DHT22;24079;51.824;4.682;2023-04-10T04:27:33;10.50;99.90
37998;DHT22;24079;51.824;4.682;2023-04-10T04:29:58;10.50;99.90
37998;DHT22;24079;51.824;4.682;2023-04-10T04:32:24;10.50;99.90
37998;DHT22;24079;51.824;4.682;2023-04-10T04:34:50;10.40;99.90
37998;DHT22;24079;51.824;4.682;2023-04-10T04:37:16;10.50;99.90
37998;DHT22;24079;51.824;4.682;2023-04-10T04:39:42;10.50;99.90
37998;DHT22;24079;51.824;4.682;2023-04-10T04:42:08;10.40;99.90
37998;DHT22;24079;51.824;4.682;2023-04-10T04:44:34;10.40;99.90
37998;DHT22;24079;51.824;4.682;2023-04-10T04:47:00;10.40;99.90
37998;DHT22;24079;51.824;4.682;2023-04-10T04:49:26;10.40;99.90
37998;DHT22;24079;51.824;4.682;2023-04-10T04:51:52;10.40;99.90
37998;DHT22;24079;51.824;4.682;2023-04-10T04:54:18;10.40;99.90
37998;DHT22;24079;51.824;4.682;2023-04-10T04:56:43;10.40;99.90
37998;DHT22;24079;51.824;4.682;2023-04-10T04:59:09;10.40;99.90
37998;DHT22;24079;51.824;4.682;2023-04-10T05:01:36;10.40;99.90
37998;DHT22;24079;51.824;4.682;2023-04-10T05:04:01;10.40;99.90
37998;DHT22;24079;51.824;4.682;2023-04-10T05:06:27;10.40;99.90
37998;DHT22;24079;51.824;4.682;2023-04-10T05:08:52;10.40;99.90
37998;DHT22;24079;51.824;4.682;2023-04-10T05:11:18;10.40;99.90
37998;DHT22;24079;51.824;4.682;2023-04-10T05:13:44;10.40;99.90
37998;DHT22;24079;51.824;4.682;2023-04-10T05:16:10;10.40;99.90
37998;DHT22;24079;51.824;4.682;2023-04-10T05:18:36;10.50;99.90
37998;DHT22;24079;51.824;4.682;2023-04-10T05:21:02;10.40;99.90
37998;DHT22;24079;51.824;4.682;2023-04-10T05:23:28;10.40;99.90
37998;DHT22;24079;51.824;4.682;2023-04-10T05:25:54;10.40;99.90
37998;DHT22;24079;51.824;4.682;2023-04-10T05:28:20;10.40;99.90
37998;DHT22;24079;51.824;4.682;2023-04-10T05:30:47;10.40;99.90
37998;DHT22;24079;51.824;4.682;2023-04-10T05:33:13;10.40;99.90
37998;DHT22;24079;51.824;4.682;2023-04-10T05:35:39;10.40;99.90
37998;DHT22;24079;51.824;4.682;2023-04-10T05:38:05;10.50;99.90
37998;DHT22;24079;51.824;4.682;2023-04-10T05:40:31;10.40;99.90
37998;DHT22;24079;51.824;4.682;2023-04-10T05:42:57;10.50;99.90
37998;DHT22;24079;51.824;4.682;2023-04-10T05:45:23;10.50;99.90
37998;DHT22;24079;51.824;4.682;2023-04-10T05:47:49;10.50;99.90
37998;DHT22;24079;51.824;4.682;2023-04-10T05:50:15;10.50;99.90
37998;DHT22;24079;51.824;4.682;2023-04-10T05:52:41;10.60;99.90
37998;DHT22;24079;51.824;4.682;2023-04-10T05:55:08;10.60;99.90
37998;DHT22;24079;51.824;4.682;2023-04-10T05:57:34;10.60;99.90
37998;DHT22;24079;51.824;4.682;2023-04-10T06:00:00;10.60;99.90
37998;DHT22;24079;51.824;4.682;2023-04-10T06:02:26;10.60;99.90
37998;DHT22;24079;51.824;4.682;2023-04-10T06:04:52;10.60;99.90
37998;DHT22;24079;51.824;4.682;2023-04-10T06:07:18;10.70;99.90
37998;DHT22;24079;51.824;4.682;2023-04-10T06:09:44;10.60;99.90
37998;DHT22;24079;51.824;4.682;2023-04-10T06:12:10;10.60;99.90
37998;DHT22;24079;51.824;4.682;2023-04-10T06:14:36;10.60;99.90
37998;DHT22;24079;51.824;4.682;2023-04-10T06:17:02;10.70;99.90
37998;DHT22;24079;51.824;4.682;2023-04-10T06:19:28;10.70;99.90
37998;DHT22;24079;51.824;4.682;2023-04-10T06:21:54;10.70;99.90
37998;DHT22;24079;51.824;4.682;2023-04-10T06:24:20;10.70;99.90
37998;DHT22;24079;51.824;4.682;2023-04-10T06:26:46;10.70;99.90
37998;DHT22;24079;51.824;4.682;2023-04-10T06:29:12;10.70;99.90
37998;DHT22;24079;51.824;4.682;2023-04-10T06:31:38;10.70;99.90
37998;DHT22;24079;51.824;4.682;2023-04-10T06:34:04;10.80;99.90
37998;DHT22;24079;51.824;4.682;2023-04-10T06:36:30;10.80;99.90
37998;DHT22;24079;51.824;4.682;2023-04-10T06:38:56;10.80;99.90
37998;DHT22;24079;51.824;4.682;2023-04-10T06:41:22;10.80;99.90
37998;DHT22;24079;51.824;4.682;2023-04-10T06:43:48;10.90;99.90
37998;DHT22;24079;51.824;4.682;2023-04-10T06:46:14;10.90;99.90
37998;DHT22;24079;51.824;4.682;2023-04-10T06:48:40;11.00;99.90
37998;DHT22;24079;51.824;4.682;2023-04-10T06:51:06;11.00;99.90
37998;DHT22;24079;51.824;4.682;2023-04-10T06:53:32;11.10;99.90
37998;DHT22;24079;51.824;4.682;2023-04-10T06:55:58;11.10;99.90
37998;DHT22;24079;51.824;4.682;2023-04-10T06:58:23;11.10;99.90
37998;DHT22;24079;51.824;4.682;2023-04-10T07:00:50;11.20;99.90
37998;DHT22;24079;51.824;4.682;2023-04-10T07:03:16;11.30;99.90
37998;DHT22;24079;51.824;4.682;2023-04-10T07:05:42;11.40;99.90
37998;DHT22;24079;51.824;4.682;2023-04-10T07:08:08;11.50;99.90
37998;DHT22;24079;51.824;4.682;2023-04-10T07:10:34;11.60;99.90
37998;DHT22;24079;51.824;4.682;2023-04-10T07:13:00;11.60;99.90
37998;DHT22;24079;51.824;4.682;2023-04-10T07:15:26;11.70;99.90
37998;DHT22;24079;51.824;4.682;2023-04-10T07:17:52;11.80;99.90
37998;DHT22;24079;51.824;4.682;2023-04-10T07:20:18;12.00;99.90
37998;DHT22;24079;51.824;4.682;2023-04-10T07:22:44;12.00;99.90
37998;DHT22;24079;51.824;4.682;2023-04-10T07:25:10;12.10;99.90
37998;DHT22;24079;51.824;4.682;2023-04-10T07:27:36;12.30;99.90
37998;DHT22;24079;51.824;4.682;2023-04-10T07:30:02;12.40;99.90
37998;DHT22;24079;51.824;4.682;2023-04-10T07:32:28;12.40;99.90
37998;DHT22;24079;51.824;4.682;2023-04-10T07:34:54;12.40;99.90
37998;DHT22;24079;51.824;4.682;2023-04-10T07:37:20;12.20;99.90
37998;DHT22;24079;51.824;4.682;2023-04-10T07:39:46;12.20;99.90
37998;DHT22;24079;51.824;4.682;2023-04-10T07:42:12;12.30;99.90
37998;DHT22;24079;51.824;4.682;2023-04-10T07:44:38;12.30;99.90
37998;DHT22;24079;51.824;4.682;2023-04-10T07:47:03;12.30;99.90
37998;DHT22;24079;51.824;4.682;2023-04-10T07:49:30;12.40;99.90
37998;DHT22;24079;51.824;4.682;2023-04-10T07:51:55;12.40;99.90
37998;DHT22;24079;51.824;4.682;2023-04-10T07:54:21;12.40;99.90
37998;DHT22;24079;51.824;4.682;2023-04-10T07:56:47;12.40;99.90
37998;DHT22;24079;51.824;4.682;2023-04-10T07:59:13;12.40;99.90
37998;DHT22;24079;51.824;4.682;2023-04-10T08:01:39;12.40;99.90
37998;DHT22;24079;51.824;4.682;2023-04-10T08:04:06;12.50;99.90
37998;DHT22;24079;51.824;4.682;2023-04-10T08:06:32;12.50;99.90
37998;DHT22;24079;51.824;4.682;2023-04-10T08:08:57;12.50;99.90
37998;DHT22;24079;51.824;4.682;2023-04-10T08:11:27;12.60;99.90
37998;DHT22;24079;51.824;4.682;2023-04-10T08:13:54;12.50;99.90
37998;DHT22;24079;51.824;4.682;2023-04-10T08:16:25;12.50;99.90
37998;DHT22;24079;51.824;4.682;2023-04-10T08:18:52;12.50;99.90
37998;DHT22;24079;51.824;4.682;2023-04-10T08:21:20;12.50;99.90
37998;DHT22;24079;51.824;4.682;2023-04-10T08:23:46;12.50;99.90
37998;DHT22;24079;51.824;4.682;2023-04-10T08:26:14;12.60;99.90
37998;DHT22;24079;51.824;4.682;2023-04-10T08:28:40;12.60;99.90
37998;DHT22;24079;51.824;4.682;2023-04-10T08:31:11;12.70;99.90
37998;DHT22;24079;51.824;4.682;2023-04-10T08:33:38;12.70;99.90
37998;DHT22;24079;51.824;4.682;2023-04-10T08:36:04;12.70;99.90
37998;DHT22;24079;51.824;4.682;2023-04-10T08:38:30;12.80;99.90
37998;DHT22;24079;51.824;4.682;2023-04-10T08:40:57;12.90;99.90
37998;DHT22;24079;51.824;4.682;2023-04-10T08:43:23;12.80;99.90
37998;DHT22;24079;51.824;4.682;2023-04-10T08:45:51;12.90;99.90
37998;DHT22;24079;51.824;4.682;2023-04-10T08:48:18;12.90;99.90
37998;DHT22;24079;51.824;4.682;2023-04-10T08:50:45;12.90;99.90
37998;DHT22;24079;51.824;4.682;2023-04-10T08:53:13;12.90;99.90
37998;DHT22;24079;51.824;4.682;2023-04-10T08:55:40;13.10;99.90
37998;DHT22;24079;51.824;4.682;2023-04-10T08:58:06;13.10;99.90
37998;DHT22;24079;51.824;4.682;2023-04-10T09:00:33;13.10;99.90
37998;DHT22;24079;51.824;4.682;2023-04-10T09:03:00;13.20;99.90
37998;DHT22;24079;51.824;4.682;2023-04-10T09:05:30;13.20;99.90
37998;DHT22;24079;51.824;4.682;2023-04-10T09:07:56;13.30;99.90
37998;DHT22;24079;51.824;4.682;2023-04-10T09:10:22;13.40;99.90
37998;DHT22;24079;51.824;4.682;2023-04-10T09:12:48;13.40;99.90
37998;DHT22;24079;51.824;4.682;2023-04-10T09:15:15;13.40;99.90
37998;DHT22;24079;51.824;4.682;2023-04-10T09:17:58;13.40;99.90
37998;DHT22;24079;51.824;4.682;2023-04-10T09:20:25;13.60;99.90
37998;DHT22;24079;51.824;4.682;2023-04-10T09:22:52;13.60;99.90
37998;DHT22;24079;51.824;4.682;2023-04-10T09:25:33;13.60;99.90
37998;DHT22;24079;51.824;4.682;2023-04-10T09:28:05;13.70;99.90
37998;DHT22;24079;51.824;4.682;2023-04-10T09:30:33;13.80;99.90
37998;DHT22;24079;51.824;4.682;2023-04-10T09:33:00;13.80;99.90
37998;DHT22;24079;51.824;4.682;2023-04-10T09:35:37;13.70;99.90
37998;DHT22;24079;51.824;4.682;2023-04-10T09:38:17;13.70;99.90
37998;DHT22;24079;51.824;4.682;2023-04-10T09:40:44;13.70;99.90
37998;DHT22;24079;51.824;4.682;2023-04-10T09:45:48;13.90;99.90
37998;DHT22;24079;51.824;4.682;2023-04-10T09:48:14;14.10;99.90
37998;DHT22;24079;51.824;4.682;2023-04-10T09:50:41;14.30;99.90
37998;DHT22;24079;51.824;4.682;2023-04-10T09:53:12;14.50;99.90
37998;DHT22;24079;51.824;4.682;2023-04-10T09:55:40;14.50;99.90
37998;DHT22;24079;51.824;4.682;2023-04-10T09:58:07;14.60;99.90
37998;DHT22;24079;51.824;4.682;2023-04-10T10:00:40;14.60;99.90
37998;DHT22;24079;51.824;4.682;2023-04-10T10:03:12;14.60;99.90
37998;DHT22;24079;51.824;4.682;2023-04-10T10:05:44;14.50;99.90
37998;DHT22;24079;51.824;4.682;2023-04-10T10:08:12;14.60;99.90
37998;DHT22;24079;51.824;4.682;2023-04-10T10:10:50;14.70;99.90
37998;DHT22;24079;51.824;4.682;2023-04-10T10:21:12;15.30;99.90
37998;DHT22;24079;51.824;4.682;2023-04-10T10:23:39;15.50;99.90
37998;DHT22;24079;51.824;4.682;2023-04-10T10:26:09;15.70;99.90
37998;DHT22;24079;51.824;4.682;2023-04-10T10:28:35;15.90;99.90
37998;DHT22;24079;51.824;4.682;2023-04-10T10:31:02;15.90;99.90
37998;DHT22;24079;51.824;4.682;2023-04-10T10:33:29;15.90;99.90
37998;DHT22;24079;51.824;4.682;2023-04-10T10:36:02;16.00;99.90
37998;DHT22;24079;51.824;4.682;2023-04-10T10:38:30;16.00;99.90
37998;DHT22;24079;51.824;4.682;2023-04-10T10:41:20;16.00;99.90
37998;DHT22;24079;51.824;4.682;2023-04-10T10:43:59;16.10;99.90
37998;DHT22;24079;51.824;4.682;2023-04-10T10:46:50;16.10;99.90
37998;DHT22;24079;51.824;4.682;2023-04-10T10:49:16;16.10;99.90
37998;DHT22;24079;51.824;4.682;2023-04-10T10:51:49;16.10;99.90
37998;DHT22;24079;51.824;4.682;2023-04-10T10:54:30;16.10;99.90
37998;DHT22;24079;51.824;4.682;2023-04-10T10:56:57;16.40;99.90
37998;DHT22;24079;51.824;4.682;2023-04-10T11:02:15;16.70;99.90
37998;DHT22;24079;51.824;4.682;2023-04-10T11:04:45;16.80;99.90
37998;DHT22;24079;51.824;4.682;2023-04-10T11:07:12;16.80;99.90
37998;DHT22;24079;51.824;4.682;2023-04-10T11:09:51;17.00;99.90
37998;DHT22;24079;51.824;4.682;2023-04-10T11:12:20;17.00;99.90
37998;DHT22;24079;51.824;4.682;2023-04-10T11:15:00;16.80;99.90
37998;DHT22;24079;51.824;4.682;2023-04-10T11:17:49;16.80;99.90
37998;DHT22;24079;51.824;4.682;2023-04-10T11:20:15;16.90;99.90
37998;DHT22;24079;51.824;4.682;2023-04-10T11:25:52;17.00;99.90
37998;DHT22;24079;51.824;4.682;2023-04-10T11:28:33;16.80;99.90
37998;DHT22;24079;51.824;4.682;2023-04-10T11:31:28;16.80;99.90
37998;DHT22;24079;51.824;4.682;2023-04-10T11:34:03;17.00;99.90
37998;DHT22;24079;51.824;4.682;2023-04-10T11:36:30;17.00;99.90
37998;DHT22;24079;51.824;4.682;2023-04-10T11:39:02;16.90;99.90
37998;DHT22;24079;51.824;4.682;2023-04-10T11:41:32;16.80;99.90
37998;DHT22;24079;51.824;4.682;2023-04-10T11:43:59;16.80;99.90
37998;DHT22;24079;51.824;4.682;2023-04-10T11:46:27;16.90;99.90
37998;DHT22;24079;51.824;4.682;2023-04-10T11:49:03;16.90;99.90
37998;DHT22;24079;51.824;4.682;2023-04-10T11:51:30;17.00;99.90
37998;DHT22;24079;51.824;4.682;2023-04-10T11:54:10;17.00;99.90
37998;DHT22;24079;51.824;4.682;2023-04-10T11:56:38;17.10;99.90
37998;DHT22;24079;51.824;4.682;2023-04-10T11:59:05;17.00;99.90
37998;DHT22;24079;51.824;4.682;2023-04-10T12:01:44;16.90;99.90
37998;DHT22;24079;51.824;4.682;2023-04-10T12:04:18;16.80;99.90
37998;DHT22;24079;51.824;4.682;2023-04-10T12:09:15;16.70;99.90
37998;DHT22;24079;51.824;4.682;2023-04-10T12:11:53;16.50;99.90
37998;DHT22;24079;51.824;4.682;2023-04-10T12:14:21;16.30;99.90
37998;DHT22;24079;51.824;4.682;2023-04-10T12:16:50;16.20;99.90
37998;DHT22;24079;51.824;4.682;2023-04-10T12:19:18;16.20;99.90
37998;DHT22;24079;51.824;4.682;2023-04-10T12:21:45;16.10;99.90
37998;DHT22;24079;51.824;4.682;2023-04-10T12:24:11;16.10;99.90
37998;DHT22;24079;51.824;4.682;2023-04-10T12:26:38;16.00;99.90
37998;DHT22;24079;51.824;4.682;2023-04-10T12:29:11;16.00;99.90
37998;DHT22;24079;51.824;4.682;2023-04-10T12:31:37;15.90;99.90
37998;DHT22;24079;51.824;4.682;2023-04-10T12:34:03;15.90;99.90
37998;DHT22;24079;51.824;4.682;2023-04-10T12:36:31;15.90;99.90
37998;DHT22;24079;51.824;4.682;2023-04-10T12:39:02;15.90;99.90
37998;DHT22;24079;51.824;4.682;2023-04-10T12:41:32;15.90;99.90
37998;DHT22;24079;51.824;4.682;2023-04-10T12:44:12;15.90;99.90
37998;DHT22;24079;51.824;4.682;2023-04-10T12:46:43;15.80;99.90
37998;DHT22;24079;51.824;4.682;2023-04-10T12:49:14;15.80;99.90
37998;DHT22;24079;51.824;4.682;2023-04-10T12:51:50;15.70;99.90
37998;DHT22;24079;51.824;4.682;2023-04-10T12:54:33;15.70;99.90
37998;DHT22;24079;51.824;4.682;2023-04-10T12:57:01;15.60;99.90
37998;DHT22;24079;51.824;4.682;2023-04-10T12:59:31;15.50;99.90
37998;DHT22;24079;51.824;4.682;2023-04-10T13:01:58;15.30;99.90
37998;DHT22;24079;51.824;4.682;2023-04-10T13:04:24;15.20;99.90
37998;DHT22;24079;51.824;4.682;2023-04-10T13:06:50;15.10;99.90
37998;DHT22;24079;51.824;4.682;2023-04-10T13:09:19;15.00;99.90
37998;DHT22;24079;51.824;4.682;2023-04-10T13:11:46;14.90;99.90
37998;DHT22;24079;51.824;4.682;2023-04-10T13:14:12;14.90;99.90
37998;DHT22;24079;51.824;4.682;2023-04-10T13:16:38;14.90;99.90
37998;DHT22;24079;51.824;4.682;2023-04-10T13:19:04;15.00;99.90
37998;DHT22;24079;51.824;4.682;2023-04-10T13:21:30;15.00;99.90
37998;DHT22;24079;51.824;4.682;2023-04-10T13:23:56;14.90;99.90
37998;DHT22;24079;51.824;4.682;2023-04-10T13:26:23;14.90;99.90
37998;DHT22;24079;51.824;4.682;2023-04-10T13:28:49;14.90;99.90
37998;DHT22;24079;51.824;4.682;2023-04-10T13:31:15;14.90;99.90
37998;DHT22;24079;51.824;4.682;2023-04-10T13:33:45;14.80;99.90
37998;DHT22;24079;51.824;4.682;2023-04-10T13:36:13;14.80;99.90
37998;DHT22;24079;51.824;4.682;2023-04-10T13:38:39;14.80;99.90
37998;DHT22;24079;51.824;4.682;2023-04-10T13:41:05;14.80;99.90
37998;DHT22;24079;51.824;4.682;2023-04-10T13:43:31;14.80;99.90
37998;DHT22;24079;51.824;4.682;2023-04-10T13:46:00;14.70;99.90
37998;DHT22;24079;51.824;4.682;2023-04-10T13:48:26;14.60;99.90
37998;DHT22;24079;51.824;4.682;2023-04-10T13:50:52;14.50;99.90
37998;DHT22;24079;51.824;4.682;2023-04-10T13:53:18;14.40;99.90
37998;DHT22;24079;51.824;4.682;2023-04-10T13:55:45;14.30;99.90
37998;DHT22;24079;51.824;4.682;2023-04-10T13:58:13;14.20;99.90
37998;DHT22;24079;51.824;4.682;2023-04-10T14:00:41;14.10;99.90
37998;DHT22;24079;51.824;4.682;2023-04-10T14:03:09;14.10;99.90
37998;DHT22;24079;51.824;4.682;2023-04-10T14:05:37;14.10;99.90
37998;DHT22;24079;51.824;4.682;2023-04-10T14:08:04;14.00;99.90
37998;DHT22;24079;51.824;4.682;2023-04-10T14:10:30;14.00;99.90
37998;DHT22;24079;51.824;4.682;2023-04-10T14:12:56;13.90;99.90
37998;DHT22;24079;51.824;4.682;2023-04-10T14:15:22;13.80;99.90
37998;DHT22;24079;51.824;4.682;2023-04-10T14:17:48;13.80;99.90
37998;DHT22;24079;51.824;4.682;2023-04-10T14:20:14;13.70;99.90
37998;DHT22;24079;51.824;4.682;2023-04-10T14:22:40;13.70;99.90
37998;DHT22;24079;51.824;4.682;2023-04-10T14:25:07;13.70;99.90
37998;DHT22;24079;51.824;4.682;2023-04-10T14:27:35;13.70;99.90
37998;DHT22;24079;51.824;4.682;2023-04-10T14:30:02;13.70;99.90
37998;DHT22;24079;51.824;4.682;2023-04-10T14:32:29;13.70;99.90
37998;DHT22;24079;51.824;4.682;2023-04-10T14:34:55;13.60;99.90
37998;DHT22;24079;51.824;4.682;2023-04-10T14:37:22;13.60;99.90
37998;DHT22;24079;51.824;4.682;2023-04-10T14:39:49;13.60;99.90
37998;DHT22;24079;51.824;4.682;2023-04-10T14:42:15;13.60;99.90
37998;DHT22;24079;51.824;4.682;2023-04-10T14:44:41;13.60;99.90
37998;DHT22;24079;51.824;4.682;2023-04-10T14:47:07;13.70;99.90
37998;DHT22;24079;51.824;4.682;2023-04-10T14:49:33;13.70;99.90
37998;DHT22;24079;51.824;4.682;2023-04-10T14:52:00;13.70;99.90
37998;DHT22;24079;51.824;4.682;2023-04-10T14:54:26;13.70;99.90
37998;DHT22;24079;51.824;4.682;2023-04-10T14:56:52;13.70;99.90
37998;DHT22;24079;51.824;4.682;2023-04-10T14:59:18;13.60;99.90
37998;DHT22;24079;51.824;4.682;2023-04-10T15:01:44;13.60;99.90
37998;DHT22;24079;51.824;4.682;2023-04-10T15:04:10;13.50;99.90
37998;DHT22;24079;51.824;4.682;2023-04-10T15:06:36;13.50;99.90
37998;DHT22;24079;51.824;4.682;2023-04-10T15:09:03;13.40;99.90
37998;DHT22;24079;51.824;4.682;2023-04-10T15:11:28;13.40;99.90
37998;DHT22;24079;51.824;4.682;2023-04-10T15:13:54;13.40;99.90
37998;DHT22;24079;51.824;4.682;2023-04-10T15:16:20;13.30;99.90
37998;DHT22;24079;51.824;4.682;2023-04-10T15:18:47;13.30;99.90
37998;DHT22;24079;51.824;4.682;2023-04-10T15:21:14;13.30;99.90
37998;DHT22;24079;51.824;4.682;2023-04-10T15:23:40;13.20;99.90
37998;DHT22;24079;51.824;4.682;2023-04-10T15:26:10;13.10;99.90
37998;DHT22;24079;51.824;4.682;2023-04-10T15:28:38;13.10;99.90
37998;DHT22;24079;51.824;4.682;2023-04-10T15:31:04;13.10;99.90
37998;DHT22;24079;51.824;4.682;2023-04-10T15:33:31;13.10;99.90
37998;DHT22;24079;51.824;4.682;2023-04-10T15:35:57;13.00;99.90
37998;DHT22;24079;51.824;4.682;2023-04-10T15:38:23;13.00;99.90
37998;DHT22;24079;51.824;4.682;2023-04-10T15:40:51;13.00;99.90
37998;DHT22;24079;51.824;4.682;2023-04-10T15:43:16;13.00;99.90
37998;DHT22;24079;51.824;4.682;2023-04-10T15:45:43;13.00;99.90
37998;DHT22;24079;51.824;4.682;2023-04-10T15:48:08;13.00;99.90
37998;DHT22;24079;51.824;4.682;2023-04-10T15:50:36;13.00;99.90
37998;DHT22;24079;51.824;4.682;2023-04-10T15:53:02;12.90;99.90
37998;DHT22;24079;51.824;4.682;2023-04-10T15:55:29;12.90;99.90
37998;DHT22;24079;51.824;4.682;2023-04-10T15:57:55;12.80;99.90
37998;DHT22;24079;51.824;4.682;2023-04-10T16:00:21;12.80;99.90
37998;DHT22;24079;51.824;4.682;2023-04-10T16:02:48;12.70;99.90
37998;DHT22;24079;51.824;4.682;2023-04-10T16:05:14;12.70;99.90
37998;DHT22;24079;51.824;4.682;2023-04-10T16:07:40;12.70;99.90